Time;durP1;ratioP1;P1;durP2;ratioP2;P2;SDS_P1;SDS_P2;PMS_P1;PMS_P2;Temp;Humidity;BMP_temperature;BMP_pressure;BME280_temperature;BME280_humidity;BME280_pressure;Samples;Min_cycle;Max_cycle;Signal;HPM_P1;HPM_P2
2023/04/23 00:00:12;;;;;;;41.85;27.45;;;10.60;99.90;;;;;;6065866;23;98501;-78
2023/04/23 00:02:39;;;;;;;38.88;26.92;;;10.60;99.90;;;;;;6066016;23;108179;-78
2023/04/23 00:05:07;;;;;;;48.90;28.23;;;10.60;99.90;;;;;;6091401;23;98855;-78
2023/04/23 00:07:35;;;;;;;42.25;27.80;;;10.50;99.90;;;;;;6041392;23;98536;-78
2023/04/23 00:10:04;;;;;;;40.42;27.30;;;10.50;99.90;;;;;;6091916;23;98650;-79
2023/04/23 00:12:31;;;;;;;43.75;27.55;;;10.50;99.90;;;;;;6040689;23;101755;-79
2023/04/23 00:14:59;;;;;;;42.13;26.75;;;10.40;99.90;;;;;;6065418;23;103230;-78
2023/04/23 00:17:26;;;;;;;36.75;25.65;;;10.40;99.90;;;;;;6066046;23;98757;-78
2023/04/23 00:19:53;;;;;;;42.13;27.33;;;10.50;99.90;;;;;;6091866;23;98561;-79
2023/04/23 00:22:20;;;;;;;38.45;25.63;;;10.50;99.90;;;;;;6090222;23;100073;-78
2023/04/23 00:24:47;;;;;;;38.20;25.13;;;10.60;99.90;;;;;;6091330;23;99919;-79
2023/04/23 00:27:16;;;;;;;34.85;24.17;;;10.60;99.90;;;;;;6065765;23;98440;-79
2023/04/23 00:29:45;;;;;;;37.85;24.92;;;10.70;99.90;;;;;;6041808;23;98557;-78
2023/04/23 00:32:13;;;;;;;41.22;27.60;;;10.70;99.90;;;;;;6065283;23;99180;-79
2023/04/23 00:34:40;;;;;;;39.08;25.80;;;10.80;99.90;;;;;;6064831;23;101658;-79
2023/04/23 00:37:07;;;;;;;37.97;25.58;;;10.80;99.90;;;;;;6065393;23;98577;-78
2023/04/23 00:39:36;;;;;;;41.10;26.77;;;10.90;99.90;;;;;;6091872;23;97744;-78
2023/04/23 00:42:10;;;;;;;38.15;24.70;;;11.00;99.90;;;;;;6040615;23;102059;-78
2023/04/23 00:44:37;;;;;;;;;;;11.00;99.90;;;;;;6065346;23;102061;-78
2023/04/23 00:47:06;;;;;;;36.70;23.40;;;10.90;99.90;;;;;;6093587;23;99713;-79
2023/04/23 00:49:34;;;;;;;37.95;25.13;;;10.90;99.90;;;;;;6040926;23;98557;-79
2023/04/23 00:52:02;;;;;;;38.55;24.20;;;11.00;99.90;;;;;;6091287;23;99190;-79
2023/04/23 00:54:30;;;;;;;39.92;25.05;;;11.00;99.90;;;;;;6040461;23;101831;-79
2023/04/23 00:56:58;;;;;;;39.42;25.55;;;11.10;99.90;;;;;;6065428;23;98429;-78
2023/04/23 00:59:26;;;;;;;37.65;25.33;;;11.10;99.90;;;;;;6091366;23;98464;-78
2023/04/23 01:01:55;;;;;;;41.92;25.80;;;11.20;99.90;;;;;;6064754;23;101763;-79
2023/04/23 01:04:26;;;;;;;40.17;25.83;;;11.20;99.90;;;;;;6064903;23;101763;-78
2023/04/23 01:06:54;;;;;;;42.10;25.73;;;11.20;99.90;;;;;;6091572;23;98392;-78
2023/04/23 01:09:22;;;;;;;41.55;26.05;;;11.20;99.90;;;;;;6040738;23;98587;-79
2023/04/23 01:11:50;;;;;;;34.78;24.85;;;11.20;99.90;;;;;;6040449;23;102597;-78
2023/04/23 01:14:17;;;;;;;39.30;25.55;;;11.20;99.90;;;;;;6040283;23;102312;-79
2023/04/23 01:16:45;;;;;;;39.55;25.88;;;11.20;99.90;;;;;;6091675;23;98941;-79
2023/04/23 01:19:14;;;;;;;36.55;25.55;;;11.20;99.90;;;;;;6091181;23;99059;-78
2023/04/23 01:21:42;;;;;;;34.90;24.90;;;11.20;99.90;;;;;;6040834;23;101849;-79
2023/04/23 01:24:10;;;;;;;38.42;25.42;;;11.20;99.90;;;;;;6064786;23;101560;-79
2023/04/23 01:26:38;;;;;;;35.72;23.98;;;11.20;99.90;;;;;;6091447;23;98417;-78
2023/04/23 01:29:06;;;;;;;36.13;25.23;;;11.10;99.90;;;;;;6066024;23;97776;-78
2023/04/23 01:31:33;;;;;;;37.33;26.27;;;11.10;99.90;;;;;;6064398;23;101809;-79
2023/04/23 01:34:01;;;;;;;36.85;24.08;;;11.10;99.90;;;;;;6039979;23;101595;-78
2023/04/23 01:36:29;;;;;;;39.33;25.77;;;11.10;99.90;;;;;;6090803;23;99328;-79
2023/04/23 01:38:56;;;;;;;40.08;26.85;;;11.00;99.90;;;;;;6041266;23;98600;-78
2023/04/23 01:41:23;;;;;;;41.97;26.77;;;11.00;99.90;;;;;;6064478;23;101879;-78
2023/04/23 01:43:50;;;;;;;43.63;26.90;;;10.90;99.90;;;;;;6040573;23;100097;-78
2023/04/23 01:46:17;;;;;;;37.80;24.63;;;10.80;99.90;;;;;;6065055;23;98538;-79
2023/04/23 01:48:44;;;;;;;41.08;26.33;;;10.80;99.90;;;;;;6091314;23;99139;-78
2023/04/23 01:51:11;;;;;;;47.10;28.33;;;10.70;99.90;;;;;;6065295;23;99236;-78
2023/04/23 01:53:38;;;;;;;39.15;25.73;;;10.60;99.90;;;;;;6064897;23;101590;-79
2023/04/23 01:56:08;;;;;;;41.58;26.00;;;10.50;99.90;;;;;;6065549;23;98554;-78
2023/04/23 01:58:35;;;;;;;46.08;27.77;;;10.50;99.90;;;;;;6065229;23;98522;-78
2023/04/23 02:01:02;;;;;;;44.13;27.58;;;10.40;99.90;;;;;;6064370;23;102484;-78
2023/04/23 02:03:32;;;;;;;44.20;28.67;;;10.40;99.90;;;;;;6064747;23;99737;-79
2023/04/23 02:06:00;;;;;;;41.00;27.30;;;10.50;99.90;;;;;;6041962;23;99306;-79
2023/04/23 02:08:27;;;;;;;47.28;29.65;;;10.50;99.90;;;;;;6065257;23;98506;-78
2023/04/23 02:10:54;;;;;;;48.60;29.60;;;10.40;99.90;;;;;;6064617;23;101747;-78
2023/04/23 02:13:21;;;;;;;48.60;30.05;;;10.40;99.90;;;;;;6040448;23;101545;-78
2023/04/23 02:15:48;;;;;;;51.55;31.08;;;10.40;99.90;;;;;;6064629;23;98556;-78
2023/04/23 02:18:15;;;;;;;51.75;29.83;;;10.40;99.90;;;;;;6041369;23;97837;-78
2023/04/23 02:20:42;;;;;;;58.33;32.63;;;10.40;99.90;;;;;;6090425;23;99125;-79
2023/04/23 02:23:10;;;;;;;56.50;33.40;;;10.30;99.90;;;;;;6040371;23;101719;-78
2023/04/23 02:25:38;;;;;;;59.22;34.25;;;10.30;99.90;;;;;;6090579;23;99492;-79
2023/04/23 02:28:21;;;;;;;61.42;34.80;;;10.30;99.90;;;;;;6064813;23;98661;-79
2023/04/23 02:30:48;;;;;;;64.90;36.05;;;10.30;99.90;;;;;;6064570;23;101990;-78
2023/04/23 02:33:15;;;;;;;64.40;35.90;;;10.20;99.90;;;;;;6040152;23;105339;-79
2023/04/23 02:35:42;;;;;;;66.88;37.00;;;10.20;99.90;;;;;;6065110;23;98648;-79
2023/04/23 02:38:09;;;;;;;66.28;34.92;;;10.20;99.90;;;;;;6064902;23;99322;-79
2023/04/23 02:40:36;;;;;;;67.13;36.05;;;10.10;99.90;;;;;;6064142;23;102232;-79
2023/04/23 02:43:03;;;;;;;70.55;35.97;;;10.00;99.90;;;;;;6091258;23;98914;-79
2023/04/23 02:45:30;;;;;;;80.15;38.83;;;10.00;99.90;;;;;;6064499;23;98504;-79
2023/04/23 02:47:56;;;;;;;79.22;40.88;;;9.90;99.90;;;;;;6091113;23;98531;-79
2023/04/23 02:50:24;;;;;;;79.78;40.22;;;9.90;99.90;;;;;;6090207;23;100016;-79
2023/04/23 02:52:51;;;;;;;82.72;39.25;;;9.80;99.90;;;;;;6064162;23;101998;-78
2023/04/23 02:55:18;;;;;;;77.95;39.28;;;9.70;99.90;;;;;;6040738;23;98776;-79
2023/04/23 02:57:45;;;;;;;74.82;39.20;;;9.70;99.90;;;;;;6040575;23;99171;-78
2023/04/23 03:00:14;;;;;;;88.13;41.65;;;9.60;99.90;;;;;;6064209;23;101488;-78
2023/04/23 03:02:42;;;;;;;86.13;41.53;;;9.60;99.90;;;;;;6063846;23;101442;-79
2023/04/23 03:05:09;;;;;;;90.93;41.38;;;9.60;99.90;;;;;;6064565;23;98569;-79
2023/04/23 03:07:36;;;;;;;93.50;42.78;;;9.50;99.90;;;;;;6040521;23;97813;-79
2023/04/23 03:10:04;;;;;;;91.50;43.55;;;9.50;99.90;;;;;;6016257;23;101930;-79
2023/04/23 03:12:31;;;;;;;84.90;41.90;;;9.50;99.90;;;;;;6039816;23;101302;-79
2023/04/23 03:14:59;;;;;;;88.93;42.42;;;9.40;99.90;;;;;;6064097;23;99292;-79
2023/04/23 03:17:29;;;;;;;102.85;44.75;;;9.40;99.90;;;;;;6064259;23;98566;-79
2023/04/23 03:19:56;;;;;;;98.63;43.80;;;9.30;99.90;;;;;;6039787;23;101899;-79
2023/04/23 03:22:23;;;;;;;94.45;44.42;;;9.30;99.90;;;;;;6039790;23;101141;-79
2023/04/23 03:24:50;;;;;;;91.68;44.60;;;9.30;99.90;;;;;;6064353;23;99266;-79
2023/04/23 03:27:18;;;;;;;98.03;43.40;;;9.30;99.90;;;;;;6064419;23;98490;-79
2023/04/23 03:29:45;;;;;;;91.80;43.33;;;9.20;99.90;;;;;;6064254;23;99287;-79
2023/04/23 03:32:12;;;;;;;97.43;46.28;;;9.20;99.90;;;;;;6040388;23;101281;-79
2023/04/23 03:34:39;;;;;;;107.50;45.30;;;9.10;99.90;;;;;;6039803;23;98564;-79
2023/04/23 03:37:06;;;;;;;105.75;47.33;;;9.10;99.90;;;;;;6040341;23;98609;-79
2023/04/23 03:39:36;;;;;;;106.07;46.60;;;9.10;99.90;;;;;;6039596;23;102149;-78
2023/04/23 03:42:04;;;;;;;106.03;45.85;;;9.00;99.90;;;;;;6039669;23;101796;-79
2023/04/23 03:44:31;;;;;;;97.65;44.58;;;9.00;99.90;;;;;;6039910;23;98582;-78
2023/04/23 03:46:59;;;;;;;110.90;49.38;;;9.00;99.90;;;;;;6090386;23;98398;-79
2023/04/23 03:49:26;;;;;;;107.88;47.75;;;9.00;99.90;;;;;;6063898;23;101557;-79
2023/04/23 03:51:54;;;;;;;116.38;49.42;;;9.00;99.90;;;;;;6039594;23;101350;-79
2023/04/23 03:54:23;;;;;;;120.80;48.90;;;9.00;99.90;;;;;;6063960;23;98666;-79
2023/04/23 03:57:11;;;;;;;102.88;45.65;;;9.00;99.90;;;;;;6070404;23;97780;-79
2023/04/23 03:59:49;;;;;;;111.50;50.00;;;8.90;99.90;;;;;;6065235;23;101495;-79
2023/04/23 04:02:16;;;;;;;104.35;48.08;;;8.90;99.90;;;;;;6041014;23;101362;-79
2023/04/23 04:04:44;;;;;;;113.65;50.88;;;8.90;99.90;;;;;;6091069;23;99116;-79
2023/04/23 04:07:12;;;;;;;124.57;50.90;;;8.90;99.90;;;;;;6041844;23;98514;-79
2023/04/23 04:09:39;;;;;;;130.77;52.55;;;8.90;99.90;;;;;;6065116;23;101699;-79
2023/04/23 04:12:06;;;;;;;136.80;52.17;;;8.90;99.90;;;;;;6064952;23;100875;-78
2023/04/23 04:14:33;;;;;;;123.07;50.67;;;8.90;99.90;;;;;;6065804;23;99057;-79
2023/04/23 04:17:00;;;;;;;128.43;51.90;;;8.90;99.90;;;;;;6040982;23;98520;-79
2023/04/23 04:19:27;;;;;;;131.35;52.92;;;9.00;99.90;;;;;;6041150;23;100407;-78
2023/04/23 04:21:55;;;;;;;113.13;50.13;;;9.00;99.90;;;;;;6065661;23;98730;-79
2023/04/23 04:24:24;;;;;;;122.13;51.03;;;8.90;99.90;;;;;;6091906;23;99027;-79
2023/04/23 04:26:52;;;;;;;110.32;47.03;;;8.90;99.90;;;;;;6065595;23;98461;-79
2023/04/23 04:29:20;;;;;;;117.88;51.95;;;8.90;99.90;;;;;;6040419;23;102606;-79
2023/04/23 04:31:47;;;;;;;110.78;48.38;;;8.90;99.90;;;;;;6065386;23;99919;-79
2023/04/23 04:34:14;;;;;;;119.97;49.65;;;8.90;99.90;;;;;;6065404;23;98458;-79
2023/04/23 04:36:41;;;;;;;112.78;50.10;;;8.90;99.90;;;;;;6091835;23;98464;-78
2023/04/23 04:39:09;;;;;;;111.90;51.13;;;9.00;99.90;;;;;;6090702;23;107725;-79
2023/04/23 04:41:36;;;;;;;119.68;50.53;;;9.00;99.90;;;;;;6091513;23;99087;-79
2023/04/23 04:44:03;;;;;;;115.85;52.03;;;9.10;99.90;;;;;;6091800;23;99076;-79
2023/04/23 04:46:30;;;;;;;111.68;52.35;;;9.00;99.90;;;;;;6092175;23;97716;-79
2023/04/23 04:48:57;;;;;;;105.80;48.97;;;9.10;99.90;;;;;;6090963;23;103478;-79
2023/04/23 04:51:25;;;;;;;107.25;49.88;;;9.10;99.90;;;;;;6065014;23;101885;-79
2023/04/23 04:53:53;;;;;;;109.43;51.67;;;9.20;99.90;;;;;;6064896;23;99268;-79
2023/04/23 04:56:22;;;;;;;101.15;47.60;;;9.20;99.90;;;;;;6091974;23;98462;-79
2023/04/23 04:58:49;;;;;;;108.95;51.08;;;9.20;99.90;;;;;;6065826;23;99326;-79
2023/04/23 05:01:17;;;;;;;121.47;51.47;;;9.20;99.90;;;;;;6089567;23;101628;-79
2023/04/23 05:03:44;;;;;;;116.43;53.05;;;9.20;99.90;;;;;;6065381;23;98940;-79
2023/04/23 05:06:11;;;;;;;115.90;53.08;;;9.20;99.90;;;;;;6091202;23;98497;-78
2023/04/23 05:08:38;;;;;;;122.13;52.53;;;9.30;99.90;;;;;;6091160;23;99276;-79
2023/04/23 05:11:05;;;;;;;119.40;51.72;;;9.30;99.90;;;;;;6064835;23;105563;-78
2023/04/23 05:13:32;;;;;;;119.82;53.47;;;9.30;99.90;;;;;;6065508;23;99050;-79
2023/04/23 05:15:59;;;;;;;125.43;53.13;;;9.40;99.90;;;;;;6065057;23;98562;-79
2023/04/23 05:18:26;;;;;;;98.45;49.67;;;9.50;99.90;;;;;;6064842;23;100178;-79
2023/04/23 05:20:53;;;;;;;90.55;49.67;;;9.60;99.90;;;;;;6040686;23;99682;-79
2023/04/23 05:23:20;;;;;;;87.95;48.45;;;9.80;99.90;;;;;;6091541;23;98995;-78
2023/04/23 05:25:47;;;;;;;78.43;45.03;;;10.10;99.90;;;;;;6091543;23;98527;-78
2023/04/23 05:28:14;;;;;;;76.40;45.92;;;10.50;99.90;;;;;;6064567;23;101795;-78
2023/04/23 05:30:41;;;;;;;78.45;45.28;;;10.70;99.90;;;;;;6091081;23;99035;-78
2023/04/23 05:33:08;;;;;;;77.20;46.45;;;11.00;99.90;;;;;;6065171;23;99010;-78
2023/04/23 05:35:35;;;;;;;79.53;47.35;;;11.10;99.90;;;;;;6065666;23;97868;-78
2023/04/23 05:38:03;;;;;;;80.70;46.70;;;11.10;99.90;;;;;;6064201;23;111235;-78
2023/04/23 05:40:31;;;;;;;76.38;44.65;;;11.20;99.90;;;;;;6091208;23;98950;-78
2023/04/23 05:42:58;;;;;;;75.15;45.40;;;11.30;99.90;;;;;;6064518;23;99230;-78
2023/04/23 05:45:25;;;;;;;82.43;47.65;;;11.30;99.90;;;;;;6090910;23;98498;-78
2023/04/23 05:47:52;;;;;;;86.07;47.92;;;11.40;99.90;;;;;;6091028;23;99359;-78
2023/04/23 05:50:20;;;;;;;83.75;47.00;;;11.40;99.90;;;;;;6040400;23;101658;-78
2023/04/23 05:52:47;;;;;;;91.10;48.00;;;11.40;99.90;;;;;;6065240;23;98435;-78
2023/04/23 05:55:14;;;;;;;83.20;46.28;;;11.40;99.90;;;;;;6065463;23;98475;-78
2023/04/23 05:57:42;;;;;;;95.53;53.22;;;11.30;99.90;;;;;;6090970;23;99417;-78
2023/04/23 06:00:10;;;;;;;84.03;46.88;;;11.30;99.90;;;;;;6091263;23;98819;-78
2023/04/23 06:02:40;;;;;;;90.72;50.15;;;11.20;99.90;;;;;;6066630;23;98617;-78
2023/04/23 06:05:08;;;;;;;90.90;47.40;;;11.10;99.90;;;;;;6091255;23;99196;-78
2023/04/23 06:07:36;;;;;;;82.82;46.10;;;11.20;99.90;;;;;;6064120;23;102364;-78
2023/04/23 06:10:04;;;;;;;83.35;46.10;;;11.10;99.90;;;;;;6090628;23;102915;-79
2023/04/23 06:12:31;;;;;;;82.82;46.90;;;11.20;99.90;;;;;;6091586;23;98474;-78
2023/04/23 06:14:58;;;;;;;74.00;43.55;;;11.40;99.90;;;;;;6091383;23;98483;-78
2023/04/23 06:17:25;;;;;;;76.93;47.33;;;11.50;99.90;;;;;;6065067;23;99402;-78
2023/04/23 06:19:52;;;;;;;82.40;46.17;;;11.60;99.90;;;;;;6090323;23;98835;-79
2023/04/23 06:22:19;;;;;;;68.97;40.25;;;11.70;99.90;;;;;;6089461;23;98981;-78
2023/04/23 06:24:46;;;;;;;74.18;43.70;;;11.60;99.90;;;;;;6091874;23;97732;-78
2023/04/23 06:27:13;;;;;;;65.97;42.63;;;11.60;99.90;;;;;;6090740;23;99393;-79
2023/04/23 06:29:44;;;;;;;69.95;45.83;;;12.00;99.90;;;;;;6064419;23;101045;-79
2023/04/23 06:32:12;;;;;;;60.20;41.00;;;12.60;99.90;;;;;;6040454;23;99277;-79
2023/04/23 06:34:38;;;;;;;57.25;37.70;;;13.00;99.90;;;;;;6090906;23;98571;-79
2023/04/23 06:37:15;;;;;;;55.63;36.70;;;13.40;99.90;;;;;;6090551;23;99423;-79
2023/04/23 06:39:42;;;;;;;52.65;36.83;;;13.70;99.90;;;;;;6090382;23;108458;-79
2023/04/23 06:42:09;;;;;;;56.65;40.78;;;13.80;99.90;;;;;;6091146;23;99130;-79
2023/04/23 06:45:03;;;;;;;49.75;36.35;;;13.90;99.90;;;;;;6064606;23;98588;-78
2023/04/23 06:47:32;;;;;;;54.67;39.30;;;14.00;99.90;;;;;;6090871;23;99155;-78
2023/04/23 06:49:59;;;;;;;48.40;35.67;;;14.10;99.90;;;;;;6064821;23;101599;-78
2023/04/23 06:52:26;;;;;;;51.15;37.20;;;14.30;99.90;;;;;;6040805;23;98588;-79
2023/04/23 06:54:53;;;;;;;50.78;36.05;;;14.40;99.90;;;;;;6091302;23;98927;-79
2023/04/23 06:57:20;;;;;;;50.30;36.10;;;14.30;99.90;;;;;;6039468;23;102473;-79
2023/04/23 06:59:47;;;;;;;50.88;33.03;;;14.30;99.90;;;;;;6064292;23;102450;-78
2023/04/23 07:02:16;;;;;;;51.33;37.35;;;14.30;99.90;;;;;;6064461;23;98500;-79
2023/04/23 07:04:43;;;;;;;47.08;34.55;;;14.50;99.90;;;;;;6065057;23;98664;-79
2023/04/23 07:07:10;;;;;;;47.88;34.15;;;14.60;99.90;;;;;;6090303;23;99311;-79
2023/04/23 07:09:38;;;;;;;47.05;35.33;;;14.70;99.90;;;;;;6064339;23;107567;-78
2023/04/23 07:12:05;;;;;;;42.35;31.77;;;14.90;99.90;;;;;;6090975;23;98462;-79
2023/04/23 07:14:32;;;;;;;46.00;33.20;;;15.10;99.90;;;;;;6091481;23;97738;-78
2023/04/23 07:16:59;;;;;;;43.63;35.00;;;15.20;99.90;;;;;;6064833;23;99282;-79
2023/04/23 07:19:26;;;;;;;45.90;34.92;;;15.50;99.90;;;;;;6090230;23;99071;-78
2023/04/23 07:21:53;;;;;;;41.50;32.53;;;15.60;99.90;;;;;;6090473;23;99186;-79
2023/04/23 07:24:20;;;;;;;40.30;32.90;;;16.00;99.90;;;;;;6039902;23;98733;-79
2023/04/23 07:26:47;;;;;;;44.50;34.78;;;16.40;99.90;;;;;;6090439;23;99358;-79
2023/04/23 07:29:14;;;;;;;38.95;32.58;;;16.70;99.90;;;;;;6040150;23;99012;-79
2023/04/23 07:31:41;;;;;;;41.75;33.85;;;17.10;99.90;;;;;;6090685;23;102995;-79
2023/04/23 07:34:09;;;;;;;41.45;33.22;;;17.50;99.90;;;;;;6041676;23;98564;-79
2023/04/23 07:36:36;;;;;;;38.20;31.05;;;17.80;99.90;;;;;;6091705;23;99334;-79
2023/04/23 07:39:04;;;;;;;38.20;30.98;;;18.10;99.90;;;;;;6092273;23;99119;-79
2023/04/23 07:41:32;;;;;;;36.05;30.75;;;18.10;99.90;;;;;;6065370;23;98562;-79
2023/04/23 07:43:59;;;;;;;38.17;32.55;;;18.20;99.90;;;;;;6065630;23;98594;-79
2023/04/23 07:46:26;;;;;;;35.83;30.05;;;18.20;99.90;;;;;;6090528;23;99953;-79
2023/04/23 07:48:54;;;;;;;34.03;29.00;;;18.20;99.90;;;;;;6065164;23;102410;-79
2023/04/23 07:51:25;;;;;;;34.03;29.40;;;18.50;99.90;;;;;;6065515;23;98525;-79
2023/04/23 07:53:55;;;;;;;31.13;27.83;;;18.80;99.90;;;;;;6066279;23;98481;-79
2023/04/23 07:56:23;;;;;;;34.90;30.65;;;19.20;99.90;;;;;;6091499;23;99276;-79
2023/04/23 07:58:52;;;;;;;31.50;27.15;;;19.60;99.90;;;;;;6065920;23;102699;-79
2023/04/23 08:01:20;;;;;;;31.95;28.52;;;19.90;99.90;;;;;;6065868;23;98463;-79
2023/04/23 08:04:19;;;;;;;33.20;29.73;;;20.00;99.90;;;;;;6092370;23;97844;-79
2023/04/23 08:06:47;;;;;;;33.47;30.02;;;20.40;99.70;;;;;;6065323;23;101730;-79
2023/04/23 08:09:13;;;;;;;32.53;29.13;;;20.50;99.90;;;;;;6065662;23;98811;-79
2023/04/23 08:11:41;;;;;;;31.83;28.42;;;20.50;99.60;;;;;;6040982;23;99235;-79
2023/04/23 08:14:08;;;;;;;32.17;28.67;;;20.60;99.50;;;;;;6092101;23;98558;-79
2023/04/23 08:16:35;;;;;;;32.28;29.05;;;20.80;99.30;;;;;;6064874;23;101762;-79
2023/04/23 08:19:04;;;;;;;29.23;26.27;;;20.90;99.20;;;;;;6091539;23;99129;-79
2023/04/23 08:21:33;;;;;;;30.00;27.00;;;21.30;98.90;;;;;;6065326;23;98633;-79
2023/04/23 08:24:33;;;;;;;29.98;26.98;;;21.60;98.40;;;;;;6066140;23;99043;-80
2023/04/23 08:27:00;;;;;;;28.05;25.25;;;22.20;97.60;;;;;;6091492;23;99183;-79
2023/04/23 08:29:27;;;;;;;29.00;26.02;;;22.20;97.60;;;;;;6065530;23;101605;-79
2023/04/23 08:31:54;;;;;;;28.45;25.83;;;22.50;97.00;;;;;;6091606;23;98483;-79
2023/04/23 08:34:21;;;;;;;28.05;25.35;;;22.70;96.90;;;;;;6091419;23;98520;-79
2023/04/23 08:36:48;;;;;;;27.50;24.90;;;22.90;96.50;;;;;;6064720;23;102669;-79
2023/04/23 08:39:15;;;;;;;26.65;24.17;;;23.00;96.20;;;;;;6091539;23;99911;-79
2023/04/23 08:41:46;;;;;;;24.90;22.50;;;23.00;95.90;;;;;;6090967;23;98514;-79
2023/04/23 08:44:20;;;;;;;25.65;23.25;;;23.10;95.60;;;;;;6066020;23;98589;-79
2023/04/23 08:46:48;;;;;;;23.77;21.48;;;23.30;95.30;;;;;;6091419;23;103939;-79
2023/04/23 08:49:16;;;;;;;24.80;22.40;;;23.20;95.00;;;;;;6064907;23;101701;-79
2023/04/23 08:51:53;;;;;;;24.27;21.88;;;23.20;95.00;;;;;;6091426;23;98501;-79
2023/04/23 08:54:32;;;;;;;24.90;22.58;;;23.20;95.10;;;;;;6066269;23;98381;-79
2023/04/23 08:56:59;;;;;;;25.17;22.52;;;23.10;94.80;;;;;;6065546;23;99677;-79
2023/04/23 08:59:30;;;;;;;23.85;21.55;;;22.40;95.60;;;;;;6040788;23;101620;-79
2023/04/23 09:02:00;;;;;;;27.38;24.70;;;22.10;96.00;;;;;;6091410;23;99154;-79
2023/04/23 09:04:27;;;;;;;24.15;21.73;;;21.80;96.10;;;;;;6064867;23;98537;-79
2023/04/23 09:06:55;;;;;;;22.88;20.55;;;21.40;96.60;;;;;;6065528;23;99399;-79
2023/04/23 09:09:23;;;;;;;26.45;22.85;;;21.30;96.80;;;;;;6091272;23;99061;-79
2023/04/23 09:11:50;;;;;;;23.30;20.85;;;21.10;97.20;;;;;;6065774;23;99040;-79
2023/04/23 09:14:21;;;;;;;23.95;21.08;;;20.90;97.40;;;;;;6091959;23;98914;-79
2023/04/23 09:16:49;;;;;;;23.70;21.02;;;20.80;97.60;;;;;;6065023;23;99264;-79
2023/04/23 09:19:17;;;;;;;23.60;21.13;;;20.70;98.00;;;;;;6065216;23;100252;-79
2023/04/23 09:21:45;;;;;;;23.58;20.80;;;20.70;98.20;;;;;;6091361;23;98714;-79
2023/04/23 09:24:13;;;;;;;22.20;20.00;;;20.60;98.10;;;;;;6091656;23;98531;-79
2023/04/23 09:26:49;;;;;;;22.42;20.02;;;20.50;98.20;;;;;;6064978;23;99990;-79
2023/04/23 09:29:22;;;;;;;23.75;19.30;;;20.50;98.20;;;;;;6091511;23;99713;-75
2023/04/23 09:31:54;;;;;;;22.05;19.70;;;20.40;98.70;;;;;;6091385;23;98457;-82
2023/04/23 09:34:23;;;;;;;22.10;19.60;;;20.20;98.80;;;;;;6017484;23;98566;-80
2023/04/23 09:36:52;;;;;;;21.60;19.33;;;20.10;98.70;;;;;;6064356;23;101720;-80
2023/04/23 09:39:23;;;;;;;20.90;18.65;;;20.10;99.20;;;;;;6065236;23;99388;-80
2023/04/23 09:41:53;;;;;;;19.88;17.70;;;20.20;99.20;;;;;;6065502;23;99066;-80
2023/04/23 09:44:21;;;;;;;19.38;17.38;;;20.30;98.80;;;;;;6065432;23;98457;-79
2023/04/23 09:46:49;;;;;;;16.52;14.75;;;20.20;99.00;;;;;;6040883;23;99275;-80
2023/04/23 09:49:16;;;;;;;17.98;16.02;;;20.20;98.90;;;;;;6065051;23;99089;-80
2023/04/23 09:51:45;;;;;;;17.63;15.82;;;20.20;98.90;;;;;;6040387;23;99317;-80
2023/04/23 09:54:20;;;;;;;16.02;13.75;;;20.40;99.00;;;;;;6090826;23;98491;-79
2023/04/23 09:57:01;;;;;;;14.10;12.70;;;20.50;98.80;;;;;;6064666;23;99336;-80
2023/04/23 09:59:29;;;;;;;17.33;15.52;;;20.50;98.30;;;;;;6018867;23;101539;-80
2023/04/23 10:02:06;;;;;;;14.02;12.35;;;20.50;98.60;;;;;;6091451;23;98415;-79
2023/04/23 10:04:33;;;;;;;13.40;11.85;;;20.70;98.30;;;;;;6064961;23;98443;-79
2023/04/23 10:07:03;;;;;;;16.27;13.32;;;20.90;98.30;;;;;;6064978;23;99365;-79
2023/04/23 10:09:45;;;;;;;16.35;12.23;;;21.20;97.90;;;;;;6043676;23;102072;-79
2023/04/23 10:12:13;;;;;;;12.35;11.07;;;21.40;97.80;;;;;;6064291;23;108667;-79
2023/04/23 10:14:45;;;;;;;14.68;11.32;;;21.50;97.40;;;;;;6091116;23;98380;-79
2023/04/23 10:17:12;;;;;;;13.65;10.25;;;21.60;97.50;;;;;;6040184;23;103019;-79
2023/04/23 10:19:41;;;;;;;12.38;10.32;;;21.60;97.20;;;;;;6016294;23;102415;-79
2023/04/23 10:22:10;;;;;;;10.30;9.15;;;21.50;97.30;;;;;;6065549;23;98437;-79
2023/04/23 10:24:50;;;;;;;12.52;9.23;;;21.50;96.70;;;;;;6045575;23;98473;-79
2023/04/23 10:27:18;;;;;;;10.45;9.15;;;21.50;96.80;;;;;;6091527;23;99178;-79
2023/04/23 10:29:49;;;;;;;11.15;9.40;;;21.40;97.20;;;;;;6066211;23;99025;-79
2023/04/23 10:32:17;;;;;;;11.15;8.65;;;21.30;97.40;;;;;;6041663;23;98491;-79
2023/04/23 10:34:45;;;;;;;12.88;8.93;;;21.20;97.00;;;;;;6065844;23;97792;-79
2023/04/23 10:37:14;;;;;;;13.43;7.15;;;21.40;97.10;;;;;;6091956;23;99366;-79
2023/04/23 10:39:43;;;;;;;8.60;7.60;;;21.40;96.20;;;;;;6091169;23;99012;-79
2023/04/23 10:42:12;;;;;;;11.45;7.32;;;21.60;96.60;;;;;;6065880;23;99165;-79
2023/04/23 10:44:42;;;;;;;7.90;6.57;;;21.80;96.40;;;;;;6091435;23;98689;-79
2023/04/23 10:47:14;;;;;;;7.85;5.97;;;22.00;96.10;;;;;;6066102;23;100284;-79
2023/04/23 10:49:43;;;;;;;10.50;5.78;;;22.00;96.10;;;;;;6091284;23;98693;-79
2023/04/23 10:52:14;;;;;;;7.93;5.50;;;22.00;95.60;;;;;;6091880;23;98784;-79
2023/04/23 10:54:56;;;;;;;5.60;5.00;;;22.00;95.40;;;;;;6065668;23;98549;-78
2023/04/23 10:57:23;;;;;;;13.02;7.20;;;22.00;95.00;;;;;;6041224;23;101709;-79
2023/04/23 10:59:52;;;;;;;7.30;4.72;;;21.80;95.20;;;;;;6091565;23;99147;-79
2023/04/23 11:02:22;;;;;;;7.60;5.50;;;21.80;94.80;;;;;;6065664;23;98665;-79
2023/04/23 11:04:55;;;;;;;7.50;5.55;;;21.90;95.40;;;;;;6091440;23;99063;-79
2023/04/23 11:07:30;;;;;;;6.82;5.20;;;21.80;95.20;;;;;;6041094;23;100568;-78
2023/04/23 11:10:15;;;;;;;8.13;5.40;;;21.80;95.00;;;;;;6040583;23;100712;-79
2023/04/23 11:12:43;;;;;;;6.68;4.82;;;21.80;95.00;;;;;;6092003;23;98885;-79
2023/04/23 11:15:15;;;;;;;6.63;4.80;;;21.80;95.10;;;;;;6065556;23;98592;-78
2023/04/23 11:17:47;;;;;;;6.22;5.18;;;22.00;95.30;;;;;;6065639;23;99433;-78
2023/04/23 11:20:19;;;;;;;5.75;4.43;;;22.00;94.90;;;;;;6091391;23;99134;-79
2023/04/23 11:22:48;;;;;;;6.95;3.80;;;21.90;94.20;;;;;;6091516;23;98471;-79
2023/04/23 11:25:20;;;;;;;5.78;3.63;;;21.90;94.10;;;;;;6091918;23;97730;-79
2023/04/23 11:27:48;;;;;;;4.18;3.45;;;22.10;94.30;;;;;;6065288;23;99569;-79
2023/04/23 11:30:19;;;;;;;3.75;3.25;;;22.30;94.00;;;;;;6040590;23;100132;-78
2023/04/23 11:32:49;;;;;;;10.23;3.75;;;22.50;93.30;;;;;;6090943;23;99201;-79
2023/04/23 11:35:18;;;;;;;7.20;3.58;;;22.60;93.40;;;;;;6065082;23;98454;-78
2023/04/23 11:37:47;;;;;;;5.90;3.30;;;22.70;93.60;;;;;;6090988;23;99263;-79
2023/04/23 11:40:18;;;;;;;8.27;3.38;;;22.80;93.50;;;;;;6065116;23;99023;-79
2023/04/23 11:42:53;;;;;;;5.40;3.03;;;23.00;93.80;;;;;;6065621;23;98518;-79
2023/04/23 11:45:22;;;;;;;5.50;2.78;;;23.10;93.60;;;;;;6060085;23;99097;-79
2023/04/23 11:47:57;;;;;;;5.47;2.40;;;23.20;92.30;;;;;;6083687;23;99262;-80
2023/04/23 11:50:32;;;;;;;6.07;2.85;;;23.30;92.10;;;;;;6083699;23;99114;-79
2023/04/23 11:53:07;;;;;;;3.65;2.08;;;23.50;92.00;;;;;;6084542;23;98467;-79
2023/04/23 11:55:35;;;;;;;6.38;2.38;;;23.70;91.70;;;;;;6060486;23;98454;-79
2023/04/23 11:58:02;;;;;;;5.57;2.30;;;23.70;91.80;;;;;;6058895;23;111615;-79
2023/04/23 12:00:29;;;;;;;4.63;2.25;;;23.70;90.50;;;;;;6061557;23;100083;-79
2023/04/23 12:03:01;;;;;;;3.40;1.80;;;23.60;90.60;;;;;;6059996;23;98472;-79
2023/04/23 12:05:37;;;;;;;4.32;2.30;;;23.60;90.50;;;;;;6061918;23;99017;-79
2023/04/23 12:08:13;;;;;;;3.47;1.98;;;23.50;90.70;;;;;;6061261;23;99427;-79
2023/04/23 12:10:50;;;;;;;2.97;1.80;;;23.40;90.30;;;;;;6059980;23;99000;-79
2023/04/23 12:13:29;;;;;;;6.07;2.20;;;23.30;89.90;;;;;;6084633;23;98517;-79
2023/04/23 12:15:59;;;;;;;5.38;1.98;;;23.40;90.40;;;;;;6084215;23;97787;-79
2023/04/23 12:18:32;;;;;;;5.10;2.13;;;23.30;88.50;;;;;;6062221;23;100530;-79
2023/04/23 12:21:06;;;;;;;4.68;2.35;;;23.50;88.80;;;;;;6062298;23;98959;-80
2023/04/23 12:23:35;;;;;;;3.60;1.80;;;23.60;88.00;;;;;;6085648;23;99264;-79
2023/04/23 12:26:02;;;;;;;4.88;1.85;;;23.60;87.80;;;;;;6062383;23;98559;-79
2023/04/23 12:28:29;;;;;;;3.60;1.55;;;23.80;87.20;;;;;;6062597;23;99284;-79
2023/04/23 12:31:01;;;;;;;2.35;1.48;;;23.90;86.40;;;;;;6062603;23;99409;-79
2023/04/23 12:33:31;;;;;;;3.33;1.60;;;24.10;84.50;;;;;;6086335;23;99293;-79
2023/04/23 12:35:58;;;;;;;3.08;1.70;;;24.10;83.40;;;;;;6061591;23;99094;-79